sensor_id;sensor_type;location;lat;lon;timestamp;P1;durP1;ratioP1;P2;durP2;ratioP2
691;SDS011;70475;50.084;8.576;2023-07-20T00:02:11;7.53;;;2.23;;
691;SDS011;70475;50.084;8.576;2023-07-20T00:04:39;3.23;;;1.60;;
691;SDS011;70475;50.084;8.576;2023-07-20T00:07:07;2.67;;;1.50;;
691;SDS011;70475;50.084;8.576;2023-07-20T00:09:34;2.50;;;1.50;;
691;SDS011;70475;50.084;8.576;2023-07-20T00:12:03;2.70;;;1.77;;
691;SDS011;70475;50.084;8.576;2023-07-20T00:14:31;2.30;;;1.90;;
691;SDS011;70475;50.084;8.576;2023-07-20T00:16:59;3.20;;;1.80;;
691;SDS011;70475;50.084;8.576;2023-07-20T00:19:27;3.07;;;1.63;;
691;SDS011;70475;50.084;8.576;2023-07-20T00:21:55;5.37;;;1.70;;
691;SDS011;70475;50.084;8.576;2023-07-20T00:24:23;4.73;;;2.03;;
691;SDS011;70475;50.084;8.576;2023-07-20T00:26:51;3.33;;;1.70;;
691;SDS011;70475;50.084;8.576;2023-07-20T00:29:20;3.13;;;2.10;;
691;SDS011;70475;50.084;8.576;2023-07-20T00:31:47;2.30;;;1.57;;
691;SDS011;70475;50.084;8.576;2023-07-20T00:34:17;2.87;;;1.43;;
691;SDS011;70475;50.084;8.576;2023-07-20T00:36:45;2.97;;;1.50;;
691;SDS011;70475;50.084;8.576;2023-07-20T00:39:12;6.70;;;1.60;;
691;SDS011;70475;50.084;8.576;2023-07-20T00:41:40;9.03;;;2.23;;
691;SDS011;70475;50.084;8.576;2023-07-20T00:44:07;3.90;;;1.40;;
691;SDS011;70475;50.084;8.576;2023-07-20T00:46:36;3.80;;;1.77;;
691;SDS011;70475;50.084;8.576;2023-07-20T00:49:04;9.17;;;1.50;;
691;SDS011;70475;50.084;8.576;2023-07-20T00:51:32;4.80;;;1.83;;
691;SDS011;70475;50.084;8.576;2023-07-20T00:54:00;4.23;;;1.80;;
691;SDS011;70475;50.084;8.576;2023-07-20T00:56:29;2.53;;;1.63;;
691;SDS011;70475;50.084;8.576;2023-07-20T00:58:57;7.33;;;2.63;;
691;SDS011;70475;50.084;8.576;2023-07-20T01:01:24;2.50;;;1.80;;
691;SDS011;70475;50.084;8.576;2023-07-20T01:03:54;5.53;;;1.90;;
691;SDS011;70475;50.084;8.576;2023-07-20T01:06:25;2.33;;;1.50;;
691;SDS011;70475;50.084;8.576;2023-07-20T01:09:01;3.60;;;2.33;;
691;SDS011;70475;50.084;8.576;2023-07-20T01:11:35;3.27;;;2.10;;
691;SDS011;70475;50.084;8.576;2023-07-20T01:14:06;3.30;;;1.70;;
691;SDS011;70475;50.084;8.576;2023-07-20T01:16:34;2.30;;;1.63;;
691;SDS011;70475;50.084;8.576;2023-07-20T01:19:03;6.67;;;3.40;;
691;SDS011;70475;50.084;8.576;2023-07-20T01:21:31;2.30;;;1.50;;
691;SDS011;70475;50.084;8.576;2023-07-20T01:27:21;2.73;;;1.73;;
691;SDS011;70475;50.084;8.576;2023-07-20T01:30:09;3.53;;;2.00;;
691;SDS011;70475;50.084;8.576;2023-07-20T01:32:44;3.90;;;2.13;;
691;SDS011;70475;50.084;8.576;2023-07-20T01:35:14;3.37;;;2.40;;
691;SDS011;70475;50.084;8.576;2023-07-20T01:37:44;6.00;;;1.60;;
691;SDS011;70475;50.084;8.576;2023-07-20T01:40:15;5.03;;;2.50;;
691;SDS011;70475;50.084;8.576;2023-07-20T01:42:44;3.40;;;2.30;;
691;SDS011;70475;50.084;8.576;2023-07-20T01:45:13;4.70;;;1.77;;
691;SDS011;70475;50.084;8.576;2023-07-20T01:47:41;4.80;;;2.60;;
691;SDS011;70475;50.084;8.576;2023-07-20T01:50:10;3.60;;;2.13;;
691;SDS011;70475;50.084;8.576;2023-07-20T01:52:38;3.37;;;2.33;;
691;SDS011;70475;50.084;8.576;2023-07-20T01:55:06;3.10;;;1.77;;
691;SDS011;70475;50.084;8.576;2023-07-20T01:57:34;3.50;;;1.70;;
691;SDS011;70475;50.084;8.576;2023-07-20T02:00:01;3.80;;;2.20;;
691;SDS011;70475;50.084;8.576;2023-07-20T02:02:29;3.87;;;1.93;;
691;SDS011;70475;50.084;8.576;2023-07-20T02:04:57;2.40;;;1.90;;
691;SDS011;70475;50.084;8.576;2023-07-20T02:07:26;4.60;;;2.07;;
691;SDS011;70475;50.084;8.576;2023-07-20T02:09:54;2.80;;;2.00;;
691;SDS011;70475;50.084;8.576;2023-07-20T02:12:21;2.33;;;1.87;;
691;SDS011;70475;50.084;8.576;2023-07-20T02:14:49;4.10;;;2.60;;
691;SDS011;70475;50.084;8.576;2023-07-20T02:17:17;3.57;;;2.03;;
691;SDS011;70475;50.084;8.576;2023-07-20T02:19:45;3.00;;;1.63;;
691;SDS011;70475;50.084;8.576;2023-07-20T02:22:15;5.50;;;2.53;;
691;SDS011;70475;50.084;8.576;2023-07-20T02:24:44;3.43;;;2.10;;
691;SDS011;70475;50.084;8.576;2023-07-20T02:27:12;3.43;;;2.00;;
691;SDS011;70475;50.084;8.576;2023-07-20T02:29:40;3.87;;;2.20;;
691;SDS011;70475;50.084;8.576;2023-07-20T02:32:08;3.10;;;2.50;;
691;SDS011;70475;50.084;8.576;2023-07-20T02:34:37;4.40;;;1.90;;
691;SDS011;70475;50.084;8.576;2023-07-20T02:37:05;4.37;;;2.33;;
691;SDS011;70475;50.084;8.576;2023-07-20T02:39:35;5.53;;;1.93;;
691;SDS011;70475;50.084;8.576;2023-07-20T02:42:04;3.83;;;2.57;;
691;SDS011;70475;50.084;8.576;2023-07-20T02:44:32;2.30;;;2.00;;
691;SDS011;70475;50.084;8.576;2023-07-20T02:47:00;4.20;;;2.40;;
691;SDS011;70475;50.084;8.576;2023-07-20T02:49:28;3.77;;;2.13;;
691;SDS011;70475;50.084;8.576;2023-07-20T02:51:55;2.93;;;2.20;;
691;SDS011;70475;50.084;8.576;2023-07-20T02:54:23;2.90;;;2.07;;
691;SDS011;70475;50.084;8.576;2023-07-20T02:56:50;2.27;;;1.70;;
691;SDS011;70475;50.084;8.576;2023-07-20T02:59:19;3.13;;;2.13;;
691;SDS011;70475;50.084;8.576;2023-07-20T03:01:47;4.63;;;2.37;;
691;SDS011;70475;50.084;8.576;2023-07-20T03:04:16;3.27;;;2.23;;
691;SDS011;70475;50.084;8.576;2023-07-20T03:06:43;2.40;;;2.10;;
691;SDS011;70475;50.084;8.576;2023-07-20T03:09:11;3.23;;;2.30;;
691;SDS011;70475;50.084;8.576;2023-07-20T03:11:38;3.50;;;1.93;;
691;SDS011;70475;50.084;8.576;2023-07-20T03:14:06;2.40;;;1.90;;
691;SDS011;70475;50.084;8.576;2023-07-20T03:16:35;3.53;;;2.20;;
691;SDS011;70475;50.084;8.576;2023-07-20T03:19:03;4.23;;;2.13;;
691;SDS011;70475;50.084;8.576;2023-07-20T03:21:31;4.50;;;1.90;;
691;SDS011;70475;50.084;8.576;2023-07-20T03:23:58;3.50;;;2.30;;
691;SDS011;70475;50.084;8.576;2023-07-20T03:26:26;3.70;;;2.60;;
691;SDS011;70475;50.084;8.576;2023-07-20T03:28:53;2.73;;;2.20;;
691;SDS011;70475;50.084;8.576;2023-07-20T03:31:21;2.13;;;1.80;;
691;SDS011;70475;50.084;8.576;2023-07-20T03:33:50;3.30;;;2.03;;
691;SDS011;70475;50.084;8.576;2023-07-20T03:36:19;4.40;;;2.20;;
691;SDS011;70475;50.084;8.576;2023-07-20T03:38:48;8.50;;;2.30;;
691;SDS011;70475;50.084;8.576;2023-07-20T03:41:16;2.50;;;1.90;;
691;SDS011;70475;50.084;8.576;2023-07-20T03:43:46;5.20;;;2.13;;
691;SDS011;70475;50.084;8.576;2023-07-20T03:46:13;5.60;;;2.40;;
691;SDS011;70475;50.084;8.576;2023-07-20T03:48:41;2.50;;;2.10;;
691;SDS011;70475;50.084;8.576;2023-07-20T03:51:10;3.60;;;2.37;;
691;SDS011;70475;50.084;8.576;2023-07-20T03:53:37;4.43;;;2.27;;
691;SDS011;70475;50.084;8.576;2023-07-20T03:56:05;3.50;;;2.00;;
691;SDS011;70475;50.084;8.576;2023-07-20T03:58:32;3.33;;;2.33;;
691;SDS011;70475;50.084;8.576;2023-07-20T04:01:00;3.73;;;2.00;;
691;SDS011;70475;50.084;8.576;2023-07-20T04:03:28;5.13;;;2.40;;
691;SDS011;70475;50.084;8.576;2023-07-20T04:05:55;10.07;;;2.70;;
691;SDS011;70475;50.084;8.576;2023-07-20T04:08:24;6.53;;;2.53;;
691;SDS011;70475;50.084;8.576;2023-07-20T04:10:52;3.90;;;2.70;;
691;SDS011;70475;50.084;8.576;2023-07-20T04:13:19;3.00;;;2.20;;
691;SDS011;70475;50.084;8.576;2023-07-20T04:15:47;3.50;;;2.70;;
691;SDS011;70475;50.084;8.576;2023-07-20T04:18:15;3.00;;;2.00;;
691;SDS011;70475;50.084;8.576;2023-07-20T04:20:42;4.70;;;2.63;;
691;SDS011;70475;50.084;8.576;2023-07-20T04:23:10;4.83;;;2.60;;
691;SDS011;70475;50.084;8.576;2023-07-20T04:25:40;5.20;;;2.30;;
691;SDS011;70475;50.084;8.576;2023-07-20T04:28:07;4.23;;;2.30;;
691;SDS011;70475;50.084;8.576;2023-07-20T04:30:36;7.23;;;3.03;;
691;SDS011;70475;50.084;8.576;2023-07-20T04:33:04;6.70;;;3.03;;
691;SDS011;70475;50.084;8.576;2023-07-20T04:35:44;5.30;;;2.87;;
691;SDS011;70475;50.084;8.576;2023-07-20T04:38:13;4.47;;;2.80;;
691;SDS011;70475;50.084;8.576;2023-07-20T04:40:43;3.57;;;2.57;;
691;SDS011;70475;50.084;8.576;2023-07-20T04:43:11;3.23;;;2.13;;
691;SDS011;70475;50.084;8.576;2023-07-20T04:45:38;5.00;;;2.40;;
691;SDS011;70475;50.084;8.576;2023-07-20T04:48:07;3.70;;;2.30;;
691;SDS011;70475;50.084;8.576;2023-07-20T04:50:37;3.80;;;2.50;;
691;SDS011;70475;50.084;8.576;2023-07-20T04:53:05;3.37;;;2.50;;
691;SDS011;70475;50.084;8.576;2023-07-20T04:55:33;5.70;;;2.10;;
691;SDS011;70475;50.084;8.576;2023-07-20T04:58:02;6.20;;;3.33;;
691;SDS011;70475;50.084;8.576;2023-07-20T05:00:30;4.00;;;2.33;;
691;SDS011;70475;50.084;8.576;2023-07-20T05:02:57;3.47;;;2.30;;
691;SDS011;70475;50.084;8.576;2023-07-20T05:05:25;4.37;;;2.73;;
691;SDS011;70475;50.084;8.576;2023-07-20T05:07:53;5.50;;;2.43;;
691;SDS011;70475;50.084;8.576;2023-07-20T05:10:20;3.83;;;2.53;;
691;SDS011;70475;50.084;8.576;2023-07-20T05:12:48;3.30;;;1.90;;
691;SDS011;70475;50.084;8.576;2023-07-20T05:15:17;3.70;;;2.87;;
691;SDS011;70475;50.084;8.576;2023-07-20T05:17:45;4.20;;;2.30;;
691;SDS011;70475;50.084;8.576;2023-07-20T05:20:15;2.97;;;2.67;;
691;SDS011;70475;50.084;8.576;2023-07-20T05:22:43;2.33;;;2.13;;
691;SDS011;70475;50.084;8.576;2023-07-20T05:25:10;5.03;;;2.50;;
691;SDS011;70475;50.084;8.576;2023-07-20T05:27:39;4.00;;;2.50;;
691;SDS011;70475;50.084;8.576;2023-07-20T05:30:07;7.87;;;2.50;;
691;SDS011;70475;50.084;8.576;2023-07-20T05:32:36;5.67;;;4.13;;
691;SDS011;70475;50.084;8.576;2023-07-20T05:35:04;7.60;;;2.80;;
691;SDS011;70475;50.084;8.576;2023-07-20T05:37:32;4.83;;;2.80;;
691;SDS011;70475;50.084;8.576;2023-07-20T05:40:00;5.13;;;2.27;;
691;SDS011;70475;50.084;8.576;2023-07-20T05:42:28;5.10;;;2.33;;
691;SDS011;70475;50.084;8.576;2023-07-20T05:44:55;5.63;;;2.80;;
691;SDS011;70475;50.084;8.576;2023-07-20T05:47:22;2.50;;;2.20;;
691;SDS011;70475;50.084;8.576;2023-07-20T05:49:51;4.57;;;2.97;;
691;SDS011;70475;50.084;8.576;2023-07-20T05:52:18;5.70;;;2.93;;
691;SDS011;70475;50.084;8.576;2023-07-20T05:54:46;3.00;;;2.50;;
691;SDS011;70475;50.084;8.576;2023-07-20T05:57:14;3.10;;;2.23;;
691;SDS011;70475;50.084;8.576;2023-07-20T05:59:41;5.23;;;2.50;;
691;SDS011;70475;50.084;8.576;2023-07-20T06:02:10;5.17;;;2.50;;
691;SDS011;70475;50.084;8.576;2023-07-20T06:04:38;4.00;;;2.47;;
691;SDS011;70475;50.084;8.576;2023-07-20T06:07:07;4.53;;;2.50;;
691;SDS011;70475;50.084;8.576;2023-07-20T06:09:35;4.27;;;2.60;;
691;SDS011;70475;50.084;8.576;2023-07-20T06:12:03;4.57;;;2.77;;
691;SDS011;70475;50.084;8.576;2023-07-20T06:14:31;6.70;;;2.40;;
691;SDS011;70475;50.084;8.576;2023-07-20T06:16:58;2.90;;;2.33;;
691;SDS011;70475;50.084;8.576;2023-07-20T06:19:26;5.03;;;2.43;;
691;SDS011;70475;50.084;8.576;2023-07-20T06:21:54;4.07;;;2.53;;
691;SDS011;70475;50.084;8.576;2023-07-20T06:24:23;4.13;;;2.30;;
691;SDS011;70475;50.084;8.576;2023-07-20T06:26:50;3.63;;;2.40;;
691;SDS011;70475;50.084;8.576;2023-07-20T06:29:18;3.40;;;2.53;;
691;SDS011;70475;50.084;8.576;2023-07-20T06:31:45;3.17;;;1.93;;
691;SDS011;70475;50.084;8.576;2023-07-20T06:34:13;11.27;;;2.80;;
691;SDS011;70475;50.084;8.576;2023-07-20T06:36:41;5.40;;;2.40;;
691;SDS011;70475;50.084;8.576;2023-07-20T06:39:08;7.20;;;2.33;;
691;SDS011;70475;50.084;8.576;2023-07-20T06:41:40;4.47;;;2.07;;
691;SDS011;70475;50.084;8.576;2023-07-20T06:44:08;3.13;;;2.07;;
691;SDS011;70475;50.084;8.576;2023-07-20T06:46:36;5.23;;;1.67;;
691;SDS011;70475;50.084;8.576;2023-07-20T06:49:05;3.13;;;2.10;;
691;SDS011;70475;50.084;8.576;2023-07-20T06:51:36;5.27;;;2.20;;
691;SDS011;70475;50.084;8.576;2023-07-20T06:54:04;3.60;;;2.20;;
691;SDS011;70475;50.084;8.576;2023-07-20T06:56:32;3.80;;;2.00;;
691;SDS011;70475;50.084;8.576;2023-07-20T06:59:01;3.20;;;1.93;;
691;SDS011;70475;50.084;8.576;2023-07-20T07:01:29;3.50;;;2.30;;
691;SDS011;70475;50.084;8.576;2023-07-20T07:03:56;3.57;;;2.30;;
691;SDS011;70475;50.084;8.576;2023-07-20T07:06:24;2.90;;;2.40;;
691;SDS011;70475;50.084;8.576;2023-07-20T07:08:54;3.87;;;2.40;;
691;SDS011;70475;50.084;8.576;2023-07-20T07:11:21;3.03;;;1.53;;
691;SDS011;70475;50.084;8.576;2023-07-20T07:13:50;2.10;;;1.77;;
691;SDS011;70475;50.084;8.576;2023-07-20T07:16:19;2.90;;;2.07;;
691;SDS011;70475;50.084;8.576;2023-07-20T07:18:47;3.30;;;1.70;;
691;SDS011;70475;50.084;8.576;2023-07-20T07:21:15;3.20;;;2.20;;
691;SDS011;70475;50.084;8.576;2023-07-20T07:23:42;4.90;;;2.23;;
691;SDS011;70475;50.084;8.576;2023-07-20T07:26:10;4.57;;;2.20;;
691;SDS011;70475;50.084;8.576;2023-07-20T07:28:38;4.93;;;1.77;;
691;SDS011;70475;50.084;8.576;2023-07-20T07:31:06;3.00;;;2.20;;
691;SDS011;70475;50.084;8.576;2023-07-20T07:33:35;2.10;;;1.90;;
691;SDS011;70475;50.084;8.576;2023-07-20T07:36:04;5.03;;;2.27;;
691;SDS011;70475;50.084;8.576;2023-07-20T07:38:31;5.13;;;2.63;;
691;SDS011;70475;50.084;8.576;2023-07-20T07:41:19;2.83;;;2.10;;
691;SDS011;70475;50.084;8.576;2023-07-20T07:43:47;3.20;;;1.87;;
691;SDS011;70475;50.084;8.576;2023-07-20T07:46:14;2.70;;;1.77;;
691;SDS011;70475;50.084;8.576;2023-07-20T07:48:43;3.93;;;1.87;;
691;SDS011;70475;50.084;8.576;2023-07-20T07:51:11;2.60;;;2.07;;
691;SDS011;70475;50.084;8.576;2023-07-20T07:53:39;4.70;;;2.47;;
691;SDS011;70475;50.084;8.576;2023-07-20T07:56:07;6.40;;;3.03;;
691;SDS011;70475;50.084;8.576;2023-07-20T07:58:35;7.43;;;2.40;;
691;SDS011;70475;50.084;8.576;2023-07-20T08:01:03;3.93;;;2.30;;
691;SDS011;70475;50.084;8.576;2023-07-20T08:03:31;4.60;;;2.27;;
691;SDS011;70475;50.084;8.576;2023-07-20T08:06:00;3.93;;;2.60;;
691;SDS011;70475;50.084;8.576;2023-07-20T08:08:31;2.67;;;2.27;;
691;SDS011;70475;50.084;8.576;2023-07-20T08:10:58;3.10;;;2.13;;
691;SDS011;70475;50.084;8.576;2023-07-20T08:13:33;7.50;;;2.63;;
691;SDS011;70475;50.084;8.576;2023-07-20T08:16:00;3.63;;;2.10;;
691;SDS011;70475;50.084;8.576;2023-07-20T08:18:29;3.90;;;2.40;;
691;SDS011;70475;50.084;8.576;2023-07-20T08:20:57;3.40;;;2.10;;
691;SDS011;70475;50.084;8.576;2023-07-20T08:23:26;4.17;;;2.47;;
691;SDS011;70475;50.084;8.576;2023-07-20T08:25:54;3.47;;;2.20;;
691;SDS011;70475;50.084;8.576;2023-07-20T08:28:22;3.40;;;1.67;;
691;SDS011;70475;50.084;8.576;2023-07-20T08:30:49;2.80;;;2.10;;
691;SDS011;70475;50.084;8.576;2023-07-20T08:33:17;3.07;;;2.20;;
691;SDS011;70475;50.084;8.576;2023-07-20T08:35:46;3.20;;;2.57;;
691;SDS011;70475;50.084;8.576;2023-07-20T08:38:14;4.60;;;2.00;;
691;SDS011;70475;50.084;8.576;2023-07-20T08:40:44;2.60;;;2.03;;
691;SDS011;70475;50.084;8.576;2023-07-20T08:43:13;3.40;;;2.57;;
691;SDS011;70475;50.084;8.576;2023-07-20T08:45:43;2.70;;;2.17;;
691;SDS011;70475;50.084;8.576;2023-07-20T08:48:12;5.70;;;2.47;;
691;SDS011;70475;50.084;8.576;2023-07-20T08:50:40;1.80;;;1.50;;
691;SDS011;70475;50.084;8.576;2023-07-20T08:53:08;2.67;;;2.00;;
691;SDS011;70475;50.084;8.576;2023-07-20T08:55:37;3.63;;;2.10;;
691;SDS011;70475;50.084;8.576;2023-07-20T08:58:08;2.63;;;1.77;;
691;SDS011;70475;50.084;8.576;2023-07-20T09:00:41;3.70;;;2.03;;
691;SDS011;70475;50.084;8.576;2023-07-20T09:03:12;2.63;;;2.00;;
691;SDS011;70475;50.084;8.576;2023-07-20T09:05:42;3.60;;;2.13;;
691;SDS011;70475;50.084;8.576;2023-07-20T09:08:09;3.40;;;2.23;;
691;SDS011;70475;50.084;8.576;2023-07-20T09:10:37;2.20;;;1.97;;
691;SDS011;70475;50.084;8.576;2023-07-20T09:13:04;3.13;;;2.70;;
691;SDS011;70475;50.084;8.576;2023-07-20T09:15:36;3.23;;;1.77;;
691;SDS011;70475;50.084;8.576;2023-07-20T09:18:04;2.20;;;2.00;;
691;SDS011;70475;50.084;8.576;2023-07-20T09:20:32;6.77;;;2.13;;
691;SDS011;70475;50.084;8.576;2023-07-20T09:23:03;2.80;;;2.17;;
691;SDS011;70475;50.084;8.576;2023-07-20T09:25:32;3.03;;;2.00;;
691;SDS011;70475;50.084;8.576;2023-07-20T09:28:01;2.73;;;1.73;;
691;SDS011;70475;50.084;8.576;2023-07-20T09:30:31;6.47;;;1.90;;
691;SDS011;70475;50.084;8.576;2023-07-20T09:33:00;2.67;;;2.00;;
691;SDS011;70475;50.084;8.576;2023-07-20T09:35:28;4.73;;;2.30;;
691;SDS011;70475;50.084;8.576;2023-07-20T09:38:08;3.27;;;1.77;;
691;SDS011;70475;50.084;8.576;2023-07-20T09:40:39;7.67;;;1.90;;
691;SDS011;70475;50.084;8.576;2023-07-20T09:43:10;2.97;;;1.80;;
691;SDS011;70475;50.084;8.576;2023-07-20T09:45:41;3.90;;;1.80;;
691;SDS011;70475;50.084;8.576;2023-07-20T09:48:13;5.20;;;2.07;;
691;SDS011;70475;50.084;8.576;2023-07-20T09:50:48;5.40;;;2.03;;
691;SDS011;70475;50.084;8.576;2023-07-20T09:53:17;2.30;;;2.00;;
691;SDS011;70475;50.084;8.576;2023-07-20T09:55:45;6.30;;;1.67;;
691;SDS011;70475;50.084;8.576;2023-07-20T09:58:14;3.40;;;1.90;;
691;SDS011;70475;50.084;8.576;2023-07-20T10:00:43;3.47;;;1.93;;
691;SDS011;70475;50.084;8.576;2023-07-20T10:03:20;4.37;;;1.77;;
691;SDS011;70475;50.084;8.576;2023-07-20T10:05:51;1.93;;;1.33;;
691;SDS011;70475;50.084;8.576;2023-07-20T10:08:23;2.60;;;2.10;;
691;SDS011;70475;50.084;8.576;2023-07-20T10:10:55;2.50;;;1.70;;
691;SDS011;70475;50.084;8.576;2023-07-20T10:13:26;1.93;;;1.57;;
691;SDS011;70475;50.084;8.576;2023-07-20T10:15:55;3.77;;;2.27;;
691;SDS011;70475;50.084;8.576;2023-07-20T10:18:31;2.97;;;1.80;;
691;SDS011;70475;50.084;8.576;2023-07-20T10:21:02;4.27;;;1.80;;
691;SDS011;70475;50.084;8.576;2023-07-20T10:23:36;2.50;;;2.10;;
691;SDS011;70475;50.084;8.576;2023-07-20T10:26:06;2.57;;;2.37;;
691;SDS011;70475;50.084;8.576;2023-07-20T10:28:34;2.03;;;1.63;;
691;SDS011;70475;50.084;8.576;2023-07-20T10:31:03;2.50;;;1.77;;
691;SDS011;70475;50.084;8.576;2023-07-20T10:33:33;3.40;;;1.83;;
691;SDS011;70475;50.084;8.576;2023-07-20T10:36:02;2.77;;;2.23;;
691;SDS011;70475;50.084;8.576;2023-07-20T10:38:38;3.40;;;2.10;;
691;SDS011;70475;50.084;8.576;2023-07-20T10:41:15;2.43;;;2.00;;
691;SDS011;70475;50.084;8.576;2023-07-20T10:43:46;2.60;;;2.07;;
691;SDS011;70475;50.084;8.576;2023-07-20T10:46:14;4.20;;;2.20;;
691;SDS011;70475;50.084;8.576;2023-07-20T10:49:00;2.60;;;1.73;;
691;SDS011;70475;50.084;8.576;2023-07-20T10:51:29;2.60;;;1.80;;
691;SDS011;70475;50.084;8.576;2023-07-20T10:53:57;3.90;;;1.60;;
691;SDS011;70475;50.084;8.576;2023-07-20T10:56:26;2.50;;;2.20;;
691;SDS011;70475;50.084;8.576;2023-07-20T10:58:56;3.57;;;1.83;;
691;SDS011;70475;50.084;8.576;2023-07-20T11:01:27;2.30;;;1.70;;
691;SDS011;70475;50.084;8.576;2023-07-20T11:04:00;5.67;;;1.83;;
691;SDS011;70475;50.084;8.576;2023-07-20T11:06:31;2.00;;;1.80;;
691;SDS011;70475;50.084;8.576;2023-07-20T11:09:06;2.50;;;1.77;;
691;SDS011;70475;50.084;8.576;2023-07-20T11:11:38;1.97;;;1.77;;
691;SDS011;70475;50.084;8.576;2023-07-20T11:14:07;2.60;;;1.80;;
691;SDS011;70475;50.084;8.576;2023-07-20T11:16:36;4.23;;;1.70;;
691;SDS011;70475;50.084;8.576;2023-07-20T11:19:10;3.97;;;1.87;;
691;SDS011;70475;50.084;8.576;2023-07-20T11:22:02;3.40;;;2.20;;
691;SDS011;70475;50.084;8.576;2023-07-20T11:24:34;2.90;;;1.60;;
691;SDS011;70475;50.084;8.576;2023-07-20T11:27:01;3.70;;;2.07;;
691;SDS011;70475;50.084;8.576;2023-07-20T11:29:29;2.87;;;1.60;;
691;SDS011;70475;50.084;8.576;2023-07-20T11:32:00;1.93;;;1.53;;
691;SDS011;70475;50.084;8.576;2023-07-20T11:34:32;2.70;;;1.30;;
691;SDS011;70475;50.084;8.576;2023-07-20T11:37:01;3.00;;;1.73;;
691;SDS011;70475;50.084;8.576;2023-07-20T11:39:32;2.93;;;1.63;;
691;SDS011;70475;50.084;8.576;2023-07-20T11:42:00;5.83;;;1.50;;
691;SDS011;70475;50.084;8.576;2023-07-20T11:44:28;2.67;;;1.33;;
691;SDS011;70475;50.084;8.576;2023-07-20T11:47:00;1.70;;;1.50;;
691;SDS011;70475;50.084;8.576;2023-07-20T11:49:29;2.00;;;1.67;;
691;SDS011;70475;50.084;8.576;2023-07-20T11:52:01;2.40;;;1.43;;
691;SDS011;70475;50.084;8.576;2023-07-20T11:54:30;2.40;;;1.70;;
691;SDS011;70475;50.084;8.576;2023-07-20T11:57:00;3.67;;;2.27;;
691;SDS011;70475;50.084;8.576;2023-07-20T11:59:28;4.60;;;1.43;;
691;SDS011;70475;50.084;8.576;2023-07-20T12:01:55;1.80;;;1.60;;
691;SDS011;70475;50.084;8.576;2023-07-20T12:04:23;2.23;;;1.40;;
691;SDS011;70475;50.084;8.576;2023-07-20T12:06:52;3.83;;;1.70;;
691;SDS011;70475;50.084;8.576;2023-07-20T12:09:22;2.10;;;1.30;;
691;SDS011;70475;50.084;8.576;2023-07-20T12:11:55;3.37;;;2.10;;
691;SDS011;70475;50.084;8.576;2023-07-20T12:14:24;3.13;;;2.00;;
691;SDS011;70475;50.084;8.576;2023-07-20T12:16:52;1.70;;;1.50;;
691;SDS011;70475;50.084;8.576;2023-07-20T12:19:24;2.40;;;1.40;;
691;SDS011;70475;50.084;8.576;2023-07-20T12:21:56;2.30;;;1.77;;
691;SDS011;70475;50.084;8.576;2023-07-20T12:24:26;2.20;;;1.90;;
691;SDS011;70475;50.084;8.576;2023-07-20T12:26:55;2.70;;;1.63;;
691;SDS011;70475;50.084;8.576;2023-07-20T12:29:23;3.07;;;1.53;;
691;SDS011;70475;50.084;8.576;2023-07-20T12:31:52;7.57;;;1.50;;
691;SDS011;70475;50.084;8.576;2023-07-20T12:34:20;1.87;;;1.50;;
691;SDS011;70475;50.084;8.576;2023-07-20T12:36:47;3.87;;;2.13;;
691;SDS011;70475;50.084;8.576;2023-07-20T12:39:15;7.93;;;1.57;;
691;SDS011;70475;50.084;8.576;2023-07-20T12:41:44;5.77;;;1.43;;
691;SDS011;70475;50.084;8.576;2023-07-20T12:44:12;3.30;;;1.73;;
691;SDS011;70475;50.084;8.576;2023-07-20T12:46:39;1.73;;;1.50;;
691;SDS011;70475;50.084;8.576;2023-07-20T12:49:07;2.27;;;1.57;;
691;SDS011;70475;50.084;8.576;2023-07-20T12:51:34;3.20;;;1.47;;
691;SDS011;70475;50.084;8.576;2023-07-20T12:54:02;4.00;;;1.60;;
691;SDS011;70475;50.084;8.576;2023-07-20T12:56:30;3.63;;;1.30;;
691;SDS011;70475;50.084;8.576;2023-07-20T12:59:01;2.70;;;1.70;;
691;SDS011;70475;50.084;8.576;2023-07-20T13:01:31;2.60;;;1.80;;
691;SDS011;70475;50.084;8.576;2023-07-20T13:03:58;2.13;;;1.37;;
691;SDS011;70475;50.084;8.576;2023-07-20T13:06:29;2.33;;;1.40;;
691;SDS011;70475;50.084;8.576;2023-07-20T13:08:56;3.90;;;1.53;;
691;SDS011;70475;50.084;8.576;2023-07-20T13:11:24;1.50;;;1.40;;
691;SDS011;70475;50.084;8.576;2023-07-20T13:13:52;3.40;;;1.40;;
691;SDS011;70475;50.084;8.576;2023-07-20T13:16:21;2.67;;;1.47;;
691;SDS011;70475;50.084;8.576;2023-07-20T13:18:49;2.10;;;1.50;;
691;SDS011;70475;50.084;8.576;2023-07-20T13:21:16;3.23;;;1.37;;
691;SDS011;70475;50.084;8.576;2023-07-20T13:23:50;2.57;;;1.23;;
691;SDS011;70475;50.084;8.576;2023-07-20T13:26:17;1.50;;;1.30;;
691;SDS011;70475;50.084;8.576;2023-07-20T13:28:45;1.67;;;1.30;;
691;SDS011;70475;50.084;8.576;2023-07-20T13:31:14;1.70;;;1.30;;
691;SDS011;70475;50.084;8.576;2023-07-20T13:33:45;1.53;;;1.40;;
691;SDS011;70475;50.084;8.576;2023-07-20T13:36:23;4.80;;;1.50;;
691;SDS011;70475;50.084;8.576;2023-07-20T13:38:50;2.87;;;1.30;;
691;SDS011;70475;50.084;8.576;2023-07-20T13:41:18;2.30;;;1.60;;
691;SDS011;70475;50.084;8.576;2023-07-20T13:43:46;3.10;;;1.57;;
691;SDS011;70475;50.084;8.576;2023-07-20T13:46:14;3.13;;;1.37;;
691;SDS011;70475;50.084;8.576;2023-07-20T13:49:02;2.07;;;1.60;;
691;SDS011;70475;50.084;8.576;2023-07-20T13:51:38;3.27;;;2.27;;
691;SDS011;70475;50.084;8.576;2023-07-20T13:54:06;2.57;;;1.40;;
691;SDS011;70475;50.084;8.576;2023-07-20T13:56:37;3.87;;;1.90;;
691;SDS011;70475;50.084;8.576;2023-07-20T13:59:04;1.60;;;1.30;;
691;SDS011;70475;50.084;8.576;2023-07-20T14:01:32;2.73;;;1.47;;
691;SDS011;70475;50.084;8.576;2023-07-20T14:04:05;2.77;;;1.87;;
691;SDS011;70475;50.084;8.576;2023-07-20T14:06:34;2.60;;;1.40;;
691;SDS011;70475;50.084;8.576;2023-07-20T14:09:02;2.03;;;1.30;;
691;SDS011;70475;50.084;8.576;2023-07-20T14:11:30;1.60;;;1.00;;
691;SDS011;70475;50.084;8.576;2023-07-20T14:14:01;1.57;;;1.30;;
691;SDS011;70475;50.084;8.576;2023-07-20T14:16:29;2.50;;;1.83;;
691;SDS011;70475;50.084;8.576;2023-07-20T14:18:59;2.73;;;1.53;;
691;SDS011;70475;50.084;8.576;2023-07-20T14:21:27;2.33;;;1.10;;
691;SDS011;70475;50.084;8.576;2023-07-20T14:23:57;2.03;;;1.27;;
691;SDS011;70475;50.084;8.576;2023-07-20T14:26:27;1.70;;;1.10;;
691;SDS011;70475;50.084;8.576;2023-07-20T14:28:59;1.33;;;1.00;;
691;SDS011;70475;50.084;8.576;2023-07-20T14:31:27;1.57;;;1.20;;
691;SDS011;70475;50.084;8.576;2023-07-20T14:33:55;1.87;;;1.23;;
691;SDS011;70475;50.084;8.576;2023-07-20T14:36:25;1.83;;;1.30;;
691;SDS011;70475;50.084;8.576;2023-07-20T14:38:54;4.93;;;1.10;;
691;SDS011;70475;50.084;8.576;2023-07-20T14:41:21;2.20;;;1.17;;
691;SDS011;70475;50.084;8.576;2023-07-20T14:43:49;1.30;;;1.10;;
691;SDS011;70475;50.084;8.576;2023-07-20T14:46:17;2.00;;;1.47;;
691;SDS011;70475;50.084;8.576;2023-07-20T14:48:48;1.90;;;1.10;;
691;SDS011;70475;50.084;8.576;2023-07-20T14:51:18;1.60;;;1.00;;
691;SDS011;70475;50.084;8.576;2023-07-20T14:53:45;2.53;;;1.13;;
691;SDS011;70475;50.084;8.576;2023-07-20T14:56:15;1.87;;;1.20;;
691;SDS011;70475;50.084;8.576;2023-07-20T14:58:42;2.07;;;1.20;;
691;SDS011;70475;50.084;8.576;2023-07-20T15:01:10;1.60;;;1.10;;
691;SDS011;70475;50.084;8.576;2023-07-20T15:03:37;1.73;;;1.20;;
691;SDS011;70475;50.084;8.576;2023-07-20T15:06:09;2.67;;;1.10;;
691;SDS011;70475;50.084;8.576;2023-07-20T15:08:38;2.20;;;2.00;;
691;SDS011;70475;50.084;8.576;2023-07-20T15:11:05;2.73;;;1.27;;
691;SDS011;70475;50.084;8.576;2023-07-20T15:13:34;2.30;;;1.40;;
691;SDS011;70475;50.084;8.576;2023-07-20T15:16:02;3.30;;;1.57;;
691;SDS011;70475;50.084;8.576;2023-07-20T15:18:29;2.17;;;1.33;;
691;SDS011;70475;50.084;8.576;2023-07-20T15:21:12;3.20;;;1.13;;
691;SDS011;70475;50.084;8.576;2023-07-20T15:23:40;2.60;;;1.13;;
691;SDS011;70475;50.084;8.576;2023-07-20T15:26:07;2.07;;;1.10;;
691;SDS011;70475;50.084;8.576;2023-07-20T15:28:38;4.50;;;1.70;;
691;SDS011;70475;50.084;8.576;2023-07-20T15:31:06;2.13;;;1.37;;